ADDS METAR Data INFO
IDs: Format: Raw Decoded Include TAF

Data at: 1754 UTC 15 Dec 2017

KCRP 151751Z 33006KT 10SM -RA OVC100 10/05 A3034 RMK AO2 RAE05B47 SLP274 P0000 60006 T01000050 10100 20078 51022